Time;durP1;ratioP1;P1;durP2;ratioP2;P2;SDS_P1;SDS_P2;PMS_P1;PMS_P2;Temp;Humidity;BMP_temperature;BMP_pressure;BME280_temperature;BME280_humidity;BME280_pressure;Samples;Min_cycle;Max_cycle;Signal;HPM_P1;HPM_P2
2024/04/18 00:02:10;;;;;;;;;;;25.40;53.80;;;;;;5393897;26;19936;-40
2024/04/18 00:04:36;;;;;;;;;;;25.40;53.80;;;;;;5425320;26;19936;-44
2024/04/18 00:07:02;;;;;;;;;;;25.40;53.80;;;;;;5424818;26;19936;-42
2024/04/18 00:09:28;;;;;;;;;;;25.40;53.80;;;;;;5424534;26;19933;-41
2024/04/18 00:11:54;;;;;;;;;;;25.40;53.80;;;;;;5424911;26;19936;-40
2024/04/18 00:14:20;;;;;;;;;;;25.30;53.80;;;;;;5425403;26;19949;-41
2024/04/18 00:16:46;;;;;;;;;;;25.30;53.80;;;;;;5424962;26;19933;-41
2024/04/18 00:19:13;;;;;;;;;;;25.30;53.90;;;;;;5424599;26;19936;-40
2024/04/18 00:21:39;;;;;;;;;;;25.30;53.80;;;;;;5424656;26;19929;-42
2024/04/18 00:24:05;;;;;;;;;;;25.30;53.80;;;;;;5424430;26;19943;-40
2024/04/18 00:26:31;;;;;;;;;;;25.30;53.80;;;;;;5425152;26;19936;-40
2024/04/18 00:28:57;;;;;;;;;;;25.30;54.40;;;;;;5425577;26;19957;-40
2024/04/18 00:31:23;;;;;;;;;;;25.30;53.80;;;;;;5420684;26;19997;-40
2024/04/18 00:33:49;;;;;;;;;;;25.30;53.90;;;;;;5415740;26;19960;-41
2024/04/18 00:36:15;;;;;;;;;;;25.30;54.00;;;;;;5423823;26;19928;-40
2024/04/18 00:38:41;;;;;;;;;;;25.20;53.90;;;;;;5421195;26;19929;-40
2024/04/18 00:41:11;;;;;;;;;;;25.30;54.00;;;;;;5424422;26;20683;-40
2024/04/18 00:43:37;;;;;;;;;;;25.30;54.00;;;;;;5412763;26;19929;-40
2024/04/18 00:46:03;;;;;;;;;;;25.20;53.90;;;;;;5424164;26;19929;-40
2024/04/18 00:48:32;;;;;;;;;;;25.20;54.00;;;;;;5424742;26;19975;-41
2024/04/18 00:50:59;;;;;;;;;;;25.20;54.00;;;;;;5393493;26;19960;-40
2024/04/18 00:53:25;;;;;;;;;;;25.20;54.10;;;;;;5424624;26;19933;-41
2024/04/18 00:55:54;;;;;;;;;;;25.20;54.10;;;;;;5390832;26;20545;-40
2024/04/18 00:58:20;;;;;;;;;;;25.20;54.10;;;;;;5424134;26;19929;-40
2024/04/18 01:00:46;;;;;;;;;;;25.20;54.10;;;;;;5424058;26;19965;-41
2024/04/18 01:03:12;;;;;;;;;;;25.20;54.20;;;;;;5423562;26;20503;-40
2024/04/18 01:05:39;;;;;;;;;;;25.10;54.10;;;;;;5424669;26;19940;-43
2024/04/18 01:08:05;;;;;;;;;;;25.10;54.00;;;;;;5423918;26;19929;-43
2024/04/18 01:10:31;;;;;;;;;;;25.10;54.00;;;;;;5423969;26;19940;-40
2024/04/18 01:13:00;;;;;;;;;;;25.10;54.00;;;;;;5424575;26;19933;-39
2024/04/18 01:15:26;;;;;;;;;;;25.10;54.10;;;;;;5424054;26;19941;-39
2024/04/18 01:17:53;;;;;;;;;;;25.10;54.10;;;;;;5424687;26;19937;-38
2024/04/18 01:20:20;;;;;;;;;;;25.10;54.00;;;;;;5423747;26;19944;-37
2024/04/18 01:22:47;;;;;;;;;;;25.10;54.00;;;;;;5423548;26;19940;-37
2024/04/18 01:25:13;;;;;;;;;;;25.10;53.90;;;;;;5423765;26;19936;-37
2024/04/18 01:27:39;;;;;;;;;;;25.10;54.00;;;;;;5424256;26;19929;-37
2024/04/18 01:30:12;;;;;;;;;;;25.00;54.00;;;;;;5423201;26;19930;-37
2024/04/18 01:32:38;;;;;;;;;;;25.00;54.10;;;;;;5410223;26;19975;-37
2024/04/18 01:35:04;;;;;;;;;;;25.00;54.10;;;;;;5422714;26;19936;-37
2024/04/18 01:37:31;;;;;;;;;;;25.00;54.20;;;;;;5423069;26;19935;-37
2024/04/18 01:39:57;;;;;;;;;;;25.00;54.20;;;;;;5391004;26;19932;-37
2024/04/18 01:42:23;;;;;;;;;;;25.00;54.20;;;;;;5423169;26;19941;-36
2024/04/18 01:44:49;;;;;;;;;;;25.00;54.20;;;;;;5424081;26;19957;-36
2024/04/18 01:47:15;;;;;;;;;;;25.00;54.10;;;;;;5423378;26;19932;-36
2024/04/18 01:49:41;;;;;;;;;;;25.00;54.10;;;;;;5424202;26;20002;-36
2024/04/18 01:52:07;;;;;;;;;;;24.90;54.00;;;;;;5423149;26;19929;-37
2024/04/18 01:54:33;;;;;;;;;;;24.90;54.00;;;;;;5423613;26;19941;-37
2024/04/18 01:56:59;;;;;;;;;;;24.90;54.00;;;;;;5428280;26;20545;-36
2024/04/18 01:59:27;;;;;;;;;;;24.90;54.00;;;;;;5426915;26;19936;-36
2024/04/18 02:01:53;;;;;;;;;;;24.90;54.00;;;;;;5395575;26;19999;-36
2024/04/18 02:04:20;;;;;;;;;;;24.90;54.00;;;;;;5427173;26;19969;-36
2024/04/18 02:06:49;;;;;;;;;;;24.90;54.00;;;;;;5427126;26;19930;-36
2024/04/18 02:09:15;;;;;;;;;;;24.90;54.00;;;;;;5426926;26;19933;-36
2024/04/18 02:11:41;;;;;;;;;;;24.80;54.10;;;;;;5424393;26;19932;-36
2024/04/18 02:14:07;;;;;;;;;;;24.80;54.20;;;;;;5426542;26;19941;-36
2024/04/18 02:16:33;;;;;;;;;;;24.80;54.20;;;;;;5422908;26;19941;-36
2024/04/18 02:18:59;;;;;;;;;;;24.80;54.20;;;;;;5427725;26;19936;-35
2024/04/18 02:21:25;;;;;;;;;;;24.80;54.20;;;;;;5425907;26;19933;-35
2024/04/18 02:23:51;;;;;;;;;;;24.80;54.10;;;;;;5395700;26;19929;-35
2024/04/18 02:26:17;;;;;;;;;;;24.80;54.10;;;;;;5426384;26;19935;-36
2024/04/18 02:28:43;;;;;;;;;;;24.80;54.60;;;;;;5426940;26;19937;-36
2024/04/18 02:31:09;;;;;;;;;;;24.80;54.00;;;;;;5426654;26;19935;-36
2024/04/18 02:33:35;;;;;;;;;;;24.70;53.90;;;;;;5426368;26;19928;-37
2024/04/18 02:36:01;;;;;;;;;;;24.70;53.90;;;;;;5420970;26;19928;-41
2024/04/18 02:38:28;;;;;;;;;;;24.70;53.90;;;;;;5426932;26;19998;-36
2024/04/18 02:41:10;;;;;;;;;;;24.70;53.90;;;;;;5426807;26;19933;-37
2024/04/18 02:43:37;;;;;;;;;;;24.70;53.90;;;;;;5414403;26;19937;-37
2024/04/18 02:46:03;;;;;;;;;;;24.70;53.90;;;;;;5426499;26;19929;-38
2024/04/18 02:48:30;;;;;;;;;;;24.70;53.90;;;;;;5427095;26;19936;-37
2024/04/18 02:50:56;;;;;;;;;;;24.60;53.90;;;;;;5427079;26;19941;-37
2024/04/18 02:53:21;;;;;;;;;;;24.60;54.00;;;;;;5425475;26;19943;-37
2024/04/18 02:55:48;;;;;;;;;;;24.60;54.00;;;;;;5426726;26;20583;-37
2024/04/18 02:58:14;;;;;;;;;;;24.60;54.00;;;;;;5426417;26;19949;-37
2024/04/18 03:00:39;;;;;;;;;;;24.60;54.00;;;;;;5426418;26;19936;-37
2024/04/18 03:03:05;;;;;;;;;;;24.60;53.90;;;;;;5426087;26;19929;-37
2024/04/18 03:05:31;;;;;;;;;;;24.60;53.80;;;;;;5426404;26;19974;-37
2024/04/18 03:07:57;;;;;;;;;;;24.60;53.80;;;;;;5425101;26;19929;-38
2024/04/18 03:10:23;;;;;;;;;;;24.60;53.90;;;;;;5425918;26;19940;-37
2024/04/18 03:12:52;;;;;;;;;;;24.60;53.90;;;;;;5425883;26;19936;-37
2024/04/18 03:15:18;;;;;;;;;;;24.50;53.80;;;;;;5425956;26;19935;-38
2024/04/18 03:17:44;;;;;;;;;;;24.50;53.80;;;;;;5426405;26;19929;-38
2024/04/18 03:20:10;;;;;;;;;;;24.50;53.80;;;;;;5425731;26;19941;-37
2024/04/18 03:22:40;;;;;;;;;;;24.50;53.90;;;;;;5426558;26;19929;-38
2024/04/18 03:25:06;;;;;;;;;;;24.50;53.90;;;;;;5425493;26;20004;-38
2024/04/18 03:27:32;;;;;;;;;;;24.50;53.90;;;;;;5426203;26;19981;-38
2024/04/18 03:29:58;;;;;;;;;;;24.50;53.90;;;;;;5425882;26;19929;-38
2024/04/18 03:32:25;;;;;;;;;;;24.40;53.90;;;;;;5412777;26;19940;-38
2024/04/18 03:34:51;;;;;;;;;;;24.40;53.90;;;;;;5419084;26;19929;-39
2024/04/18 03:37:17;;;;;;;;;;;24.40;53.90;;;;;;5425195;26;19929;-38
2024/04/18 03:39:43;;;;;;;;;;;24.40;53.90;;;;;;5425999;26;19979;-38
2024/04/18 03:42:08;;;;;;;;;;;24.40;53.90;;;;;;5425317;26;19937;-38
2024/04/18 03:44:34;;;;;;;;;;;24.40;53.90;;;;;;5412992;26;19937;-38
2024/04/18 03:47:00;;;;;;;;;;;24.40;54.00;;;;;;5425799;26;19941;-38
2024/04/18 03:49:28;;;;;;;;;;;24.40;54.00;;;;;;5425462;26;19929;-37
2024/04/18 03:51:54;;;;;;;;;;;24.30;53.90;;;;;;5425776;26;19955;-38
2024/04/18 03:54:21;;;;;;;;;;;24.30;53.90;;;;;;5425317;26;20004;-38
2024/04/18 03:56:47;;;;;;;;;;;24.30;54.00;;;;;;5425750;26;19979;-38
2024/04/18 03:59:13;;;;;;;;;;;24.30;54.00;;;;;;5425323;26;19929;-38
2024/04/18 04:01:39;;;;;;;;;;;24.30;54.10;;;;;;5421034;26;19944;-38
2024/04/18 04:04:06;;;;;;;;;;;24.30;54.10;;;;;;5420220;26;19941;-38
2024/04/18 04:06:31;;;;;;;;;;;24.30;54.10;;;;;;5424546;26;19940;-38
2024/04/18 04:08:57;;;;;;;;;;;24.30;54.10;;;;;;5425386;26;19929;-38
2024/04/18 04:11:23;;;;;;;;;;;24.20;54.10;;;;;;5425306;26;19936;-38
2024/04/18 04:13:49;;;;;;;;;;;24.20;54.10;;;;;;5425601;26;19929;-38
2024/04/18 04:16:15;;;;;;;;;;;24.20;54.10;;;;;;5424130;26;19929;-38
2024/04/18 04:18:41;;;;;;;;;;;24.20;54.10;;;;;;5425245;26;19933;-38
2024/04/18 04:21:07;;;;;;;;;;;24.10;54.10;;;;;;5424335;26;19929;-38
2024/04/18 04:23:35;;;;;;;;;;;24.20;54.20;;;;;;5412046;26;20239;-38
2024/04/18 04:26:02;;;;;;;;;;;24.10;54.10;;;;;;5424831;26;19945;-38
2024/04/18 04:28:28;;;;;;;;;;;24.10;54.10;;;;;;5424923;26;20374;-39
2024/04/18 04:30:54;;;;;;;;;;;24.10;54.20;;;;;;5425163;26;19929;-39
2024/04/18 04:33:20;;;;;;;;;;;24.10;54.10;;;;;;5417123;26;20761;-38
2024/04/18 04:35:46;;;;;;;;;;;24.10;54.20;;;;;;5425163;26;19933;-38
2024/04/18 04:38:12;;;;;;;;;;;24.10;54.20;;;;;;5421796;26;19974;-38
2024/04/18 04:40:37;;;;;;;;;;;24.10;54.20;;;;;;5425472;26;19929;-39
2024/04/18 04:43:03;;;;;;;;;;;24.00;54.20;;;;;;5424302;26;19940;-38
2024/04/18 04:45:29;;;;;;;;;;;24.00;54.20;;;;;;5425014;26;19928;-38
2024/04/18 04:47:55;;;;;;;;;;;24.00;54.20;;;;;;5425446;26;19941;-39
2024/04/18 04:50:23;;;;;;;;;;;24.00;54.20;;;;;;5424930;26;19929;-39
2024/04/18 04:52:49;;;;;;;;;;;24.00;54.30;;;;;;5424587;26;19943;-38
2024/04/18 04:55:15;;;;;;;;;;;24.00;54.30;;;;;;5424079;26;19933;-38
2024/04/18 04:57:41;;;;;;;;;;;24.00;54.30;;;;;;5424838;26;19929;-38
2024/04/18 05:00:07;;;;;;;;;;;24.00;54.30;;;;;;5424618;26;19956;-39
2024/04/18 05:02:33;;;;;;;;;;;24.00;54.40;;;;;;5424485;26;20402;-38
2024/04/18 05:04:59;;;;;;;;;;;23.90;54.30;;;;;;5424788;26;19975;-38
2024/04/18 05:07:24;;;;;;;;;;;23.90;54.30;;;;;;5424567;26;19945;-38
2024/04/18 05:09:50;;;;;;;;;;;23.90;54.40;;;;;;5424480;26;19929;-38
2024/04/18 05:12:16;;;;;;;;;;;23.90;54.40;;;;;;5423794;26;19929;-39
2024/04/18 05:14:42;;;;;;;;;;;23.90;54.40;;;;;;5424987;26;19933;-38
2024/04/18 05:17:08;;;;;;;;;;;23.80;54.40;;;;;;5424212;26;19980;-38
2024/04/18 05:19:34;;;;;;;;;;;23.80;54.40;;;;;;5424418;26;19929;-38
2024/04/18 05:22:00;;;;;;;;;;;23.80;54.40;;;;;;5424430;26;19929;-38
2024/04/18 05:24:26;;;;;;;;;;;23.80;54.40;;;;;;5423706;26;19941;-38
2024/04/18 05:26:54;;;;;;;;;;;23.80;54.40;;;;;;5419958;26;19937;-38
2024/04/18 05:32:04;;;;;;;;;;;23.80;54.50;;;;;;5422130;26;19936;-38
2024/04/18 05:34:30;;;;;;;;;;;23.80;54.40;;;;;;5424303;26;20035;-37
2024/04/18 05:36:56;;;;;;;;;;;23.80;54.50;;;;;;5423871;26;19929;-38
2024/04/18 05:39:22;;;;;;;;;;;23.80;54.50;;;;;;5423466;26;19943;-38
2024/04/18 05:41:48;;;;;;;;;;;23.70;54.40;;;;;;5424078;26;19977;-38
2024/04/18 05:44:14;;;;;;;;;;;23.70;54.50;;;;;;5423373;26;19937;-37
2024/04/18 05:46:39;;;;;;;;;;;23.70;54.50;;;;;;5424427;26;19935;-38
2024/04/18 05:49:05;;;;;;;;;;;23.70;54.50;;;;;;5424152;26;19936;-37
2024/04/18 05:51:31;;;;;;;;;;;23.70;54.50;;;;;;5423142;26;19929;-38
2024/04/18 05:53:57;;;;;;;;;;;23.70;54.50;;;;;;5423774;26;19941;-38
2024/04/18 05:56:23;;;;;;;;;;;23.70;54.60;;;;;;5423266;26;19953;-38
2024/04/18 05:58:49;;;;;;;;;;;23.70;54.60;;;;;;5423807;26;19929;-38
2024/04/18 06:01:15;;;;;;;;;;;23.60;54.60;;;;;;5423176;26;19929;-37
2024/04/18 06:03:41;;;;;;;;;;;23.60;54.60;;;;;;5422215;26;19929;-38
2024/04/18 06:06:07;;;;;;;;;;;23.60;54.60;;;;;;5423303;26;19936;-42
2024/04/18 06:08:33;;;;;;;;;;;23.60;54.60;;;;;;5423948;26;19929;-38
2024/04/18 06:10:58;;;;;;;;;;;23.60;54.60;;;;;;5423655;26;19936;-38
2024/04/18 06:13:25;;;;;;;;;;;23.60;54.60;;;;;;5423084;26;19929;-38
2024/04/18 06:15:51;;;;;;;;;;;23.60;54.60;;;;;;5423221;26;19936;-38
2024/04/18 06:18:17;;;;;;;;;;;23.60;54.70;;;;;;5423135;26;19929;-38
2024/04/18 06:20:44;;;;;;;;;;;23.60;54.60;;;;;;5423173;26;19929;-38
2024/04/18 06:23:10;;;;;;;;;;;23.50;54.60;;;;;;5422344;26;19929;-38
2024/04/18 06:25:36;;;;;;;;;;;23.50;54.60;;;;;;5412483;26;19929;-38
2024/04/18 06:28:05;;;;;;;;;;;23.50;54.60;;;;;;5423222;26;20336;-38
2024/04/18 06:30:31;;;;;;;;;;;23.50;54.70;;;;;;5416516;26;19976;-38
2024/04/18 06:32:57;;;;;;;;;;;23.50;54.70;;;;;;5422596;26;20046;-38
2024/04/18 06:35:23;;;;;;;;;;;23.40;54.70;;;;;;5422272;26;19959;-38
2024/04/18 06:37:49;;;;;;;;;;;23.50;54.70;;;;;;5422910;26;19953;-38
2024/04/18 06:40:35;;;;;;;;;;;23.40;54.70;;;;;;5315654;26;19977;-38
2024/04/18 06:43:01;;;;;;;;;;;23.40;54.70;;;;;;5318039;27;19930;-38
2024/04/18 06:45:28;;;;;;;;;;;23.40;54.70;;;;;;5318484;27;20714;-39
2024/04/18 06:47:54;;;;;;;;;;;23.40;54.80;;;;;;5318803;27;20002;-38
2024/04/18 06:50:20;;;;;;;;;;;23.40;54.80;;;;;;5318542;26;19949;-38
2024/04/18 06:52:46;;;;;;;;;;;23.30;54.80;;;;;;5318196;26;19931;-38
2024/04/18 06:55:11;;;;;;;;;;;23.30;54.80;;;;;;5316597;27;19967;-39
2024/04/18 06:57:37;;;;;;;;;;;23.30;54.80;;;;;;5318502;27;19930;-38
2024/04/18 07:00:04;;;;;;;;;;;23.30;54.80;;;;;;5318558;26;19943;-38
2024/04/18 07:02:30;;;;;;;;;;;23.30;54.80;;;;;;5316238;26;19930;-38
2024/04/18 07:04:56;;;;;;;;;;;23.30;54.80;;;;;;5318349;26;19938;-38
2024/04/18 07:07:22;;;;;;;;;;;23.30;54.80;;;;;;5318371;26;19982;-38
2024/04/18 07:09:48;;;;;;;;;;;23.30;54.80;;;;;;5318239;27;19931;-38
2024/04/18 07:12:14;;;;;;;;;;;23.30;54.90;;;;;;5315075;27;19938;-39
2024/04/18 07:14:39;;;;;;;;;;;23.20;54.80;;;;;;5318398;27;20515;-38
2024/04/18 07:17:05;;;;;;;;;;;23.20;54.80;;;;;;5344483;26;20463;-38
2024/04/18 07:19:31;;;;;;;;;;;23.20;54.80;;;;;;5426418;26;20435;-39
2024/04/18 07:21:57;;;;;;;;;;;23.20;54.90;;;;;;5417054;26;20597;-38
2024/04/18 07:24:26;;;;;;;;;;;23.20;54.90;;;;;;5426195;26;20046;-38
2024/04/18 07:26:51;;;;;;;;;;;23.20;54.90;;;;;;5426298;26;19936;-38
2024/04/18 07:29:17;;;;;;;;;;;23.20;55.00;;;;;;5425882;26;19945;-39
2024/04/18 07:31:43;;;;;;;;;;;23.10;54.90;;;;;;5414347;26;19934;-38
2024/04/18 07:34:09;;;;;;;;;;;23.10;54.90;;;;;;5406708;26;19951;-39
2024/04/18 07:36:35;;;;;;;;;;;23.10;54.90;;;;;;5394283;26;19939;-39
2024/04/18 07:39:01;;;;;;;;;;;23.10;54.90;;;;;;5389440;26;19941;-38
2024/04/18 07:41:27;;;;;;;;;;;23.10;55.00;;;;;;5392677;26;19929;-38
2024/04/18 07:43:53;;;;;;;;;;;23.10;55.00;;;;;;5382423;26;19929;-38
2024/04/18 07:46:19;;;;;;;;;;;23.10;55.00;;;;;;5396060;26;19983;-38
2024/04/18 07:48:46;;;;;;;;;;;23.00;54.90;;;;;;5392407;26;19945;-38
2024/04/18 07:51:12;;;;;;;;;;;23.00;55.00;;;;;;5390857;26;19929;-38
2024/04/18 07:53:38;;;;;;;;;;;23.00;55.00;;;;;;5391832;26;19929;-38
2024/04/18 07:56:07;;;;;;;;;;;23.00;55.00;;;;;;5394089;26;20169;-38
2024/04/18 07:58:33;;;;;;;;;;;23.00;55.00;;;;;;5391577;26;19945;-38
2024/04/18 08:00:59;;;;;;;;;;;23.00;55.00;;;;;;5392881;26;20017;-38
2024/04/18 08:03:25;;;;;;;;;;;22.90;55.00;;;;;;5396502;26;19936;-38
2024/04/18 08:05:51;;;;;;;;;;;22.90;55.00;;;;;;5425270;26;19932;-38
2024/04/18 08:08:17;;;;;;;;;;;22.90;55.10;;;;;;5425360;26;19933;-39
2024/04/18 08:10:44;;;;;;;;;;;22.90;55.10;;;;;;5425805;26;19929;-38
2024/04/18 08:13:10;;;;;;;;;;;22.90;55.10;;;;;;5425202;26;19929;-38
2024/04/18 08:15:39;;;;;;;;;;;22.90;55.10;;;;;;5424754;26;19929;-38
2024/04/18 08:18:05;;;;;;;;;;;22.90;55.10;;;;;;5424835;26;19935;-38
2024/04/18 08:20:31;;;;;;;;;;;22.80;55.10;;;;;;5425541;26;19929;-38
2024/04/18 08:22:57;;;;;;;;;;;22.80;55.10;;;;;;5416260;26;19975;-38
2024/04/18 08:25:24;;;;;;;;;;;22.80;55.10;;;;;;5424294;26;19941;-38
2024/04/18 08:27:50;;;;;;;;;;;22.80;55.10;;;;;;5425357;26;19933;-39
2024/04/18 08:30:18;;;;;;;;;;;22.80;55.10;;;;;;5424887;26;20014;-38
2024/04/18 08:32:44;;;;;;;;;;;22.80;55.10;;;;;;5423723;26;20004;-37
2024/04/18 08:35:11;;;;;;;;;;;22.80;55.10;;;;;;5392580;26;19949;-38
2024/04/18 08:37:37;;;;;;;;;;;22.70;55.10;;;;;;5394966;26;20010;-38
2024/04/18 08:40:03;;;;;;;;;;;22.70;55.10;;;;;;5392370;26;19953;-38
2024/04/18 08:42:31;;;;;;;;;;;22.70;55.20;;;;;;5393356;26;24432;-38
2024/04/18 08:44:57;;;;;;;;;;;22.70;55.20;;;;;;5383612;26;19933;-38
2024/04/18 08:47:23;;;;;;;;;;;22.70;55.20;;;;;;5390039;26;19937;-37
2024/04/18 08:49:50;;;;;;;;;;;22.70;55.20;;;;;;5394572;26;20420;-37
2024/04/18 08:52:16;;;;;;;;;;;22.70;55.20;;;;;;5398382;26;19937;-38
2024/04/18 08:54:42;;;;;;;;;;;22.70;55.20;;;;;;5387249;26;19929;-38
2024/04/18 08:57:07;;;;;;;;;;;22.60;55.20;;;;;;5390339;26;19940;-38
2024/04/18 08:59:33;;;;;;;;;;;22.60;55.20;;;;;;5393865;26;20059;-39
2024/04/18 09:02:00;;;;;;;;;;;22.60;55.20;;;;;;5390972;26;22882;-38
2024/04/18 09:04:25;;;;;;;;;;;22.60;55.30;;;;;;5406502;26;19929;-38
2024/04/18 09:06:51;;;;;;;;;;;22.60;55.30;;;;;;5424353;26;19940;-38
2024/04/18 09:09:18;;;;;;;;;;;22.60;55.30;;;;;;5424335;26;19974;-38
2024/04/18 09:11:45;;;;;;;;;;;22.50;55.30;;;;;;5425494;26;19975;-38
2024/04/18 09:14:11;;;;;;;;;;;22.50;55.30;;;;;;5424283;26;19929;-38
2024/04/18 09:16:38;;;;;;;;;;;22.50;55.30;;;;;;5424428;26;19975;-38
2024/04/18 09:19:04;;;;;;;;;;;22.50;55.30;;;;;;5423923;26;19929;-38
2024/04/18 09:21:30;;;;;;;;;;;22.50;55.30;;;;;;5424390;26;19983;-38
2024/04/18 09:23:59;;;;;;;;;;;22.50;55.30;;;;;;5424603;26;19973;-38
2024/04/18 09:26:31;;;;;;;;;;;22.50;55.30;;;;;;5423849;26;19943;-38
2024/04/18 09:28:57;;;;;;;;;;;22.40;55.30;;;;;;5424380;26;19936;-38
2024/04/18 09:31:26;;;;;;;;;;;22.40;55.40;;;;;;5422514;26;19957;-38
2024/04/18 09:33:52;;;;;;;;;;;22.40;55.40;;;;;;5412979;26;19978;-38
2024/04/18 09:36:18;;;;;;;;;;;22.40;55.40;;;;;;5392524;26;19976;-39
2024/04/18 09:38:47;;;;;;;;;;;22.40;55.40;;;;;;5388449;26;20361;-38
2024/04/18 09:41:18;;;;;;;;;;;22.40;55.40;;;;;;5387841;26;19929;-39
2024/04/18 09:43:45;;;;;;;;;;;22.30;55.40;;;;;;5394550;26;19929;-38
2024/04/18 09:46:11;;;;;;;;;;;22.30;55.40;;;;;;5394061;26;20266;-38
2024/04/18 09:48:36;;;;;;;;;;;22.30;55.40;;;;;;5394698;26;19945;-39
2024/04/18 09:51:02;;;;;;;;;;;22.30;55.50;;;;;;5355211;26;20334;-39
2024/04/18 09:53:31;;;;;;;;;;;22.30;55.50;;;;;;5393223;26;19929;-39
2024/04/18 09:55:58;;;;;;;;;;;22.30;55.50;;;;;;5389834;26;19940;-39
2024/04/18 09:58:24;;;;;;;;;;;22.30;55.50;;;;;;5395590;26;19953;-39
2024/04/18 10:00:50;;;;;;;;;;;22.20;55.50;;;;;;5390242;26;19938;-39
2024/04/18 10:03:16;;;;;;;;;;;22.20;55.50;;;;;;5395573;26;19936;-38
2024/04/18 10:05:48;;;;;;;;;;;22.20;55.50;;;;;;5424110;26;20500;-39
2024/04/18 10:08:20;;;;;;;;;;;22.20;55.50;;;;;;5422693;26;19928;-39
2024/04/18 10:10:46;;;;;;;;;;;22.20;55.50;;;;;;5391904;26;19975;-38
2024/04/18 10:13:12;;;;;;;;;;;22.20;55.60;;;;;;5422856;26;19941;-39
2024/04/18 10:15:38;;;;;;;;;;;22.20;55.60;;;;;;5423929;26;20584;-39
2024/04/18 10:18:19;;;;;;;;;;;22.10;55.50;;;;;;5427035;26;19928;-39
2024/04/18 10:20:45;;;;;;;;;;;22.10;55.50;;;;;;5416453;26;19936;-38
2024/04/18 10:23:11;;;;;;;;;;;22.10;55.50;;;;;;5425989;26;19979;-39
2024/04/18 10:25:37;;;;;;;;;;;22.10;55.60;;;;;;5393223;26;19954;-39
2024/04/18 10:28:03;;;;;;;;;;;22.10;55.60;;;;;;5423678;26;19971;-39
2024/04/18 10:30:29;;;;;;;;;;;22.10;56.20;;;;;;5393268;26;19929;-39
2024/04/18 10:32:55;;;;;;;;;;;22.10;55.60;;;;;;5375031;26;19930;-39
2024/04/18 10:35:21;;;;;;;;;;;22.00;55.60;;;;;;5384796;26;19979;-39
2024/04/18 10:37:50;;;;;;;;;;;22.00;55.60;;;;;;5391128;26;19937;-38
2024/04/18 10:40:16;;;;;;;;;;;22.00;55.60;;;;;;5390787;26;19941;-38
2024/04/18 10:42:42;;;;;;;;;;;22.00;55.70;;;;;;5391289;26;19930;-38
2024/04/18 10:45:08;;;;;;;;;;;22.00;55.70;;;;;;5391002;26;19930;-38
2024/04/18 10:47:34;;;;;;;;;;;22.00;55.70;;;;;;5391347;26;19929;-39
2024/04/18 10:50:00;;;;;;;;;;;22.00;55.70;;;;;;5389046;26;19930;-38
2024/04/18 10:52:25;;;;;;;;;;;22.00;55.70;;;;;;5390549;26;19936;-39
2024/04/18 10:54:51;;;;;;;;;;;21.90;55.70;;;;;;5391213;26;20020;-39
2024/04/18 10:57:18;;;;;;;;;;;21.90;55.70;;;;;;5390483;26;19937;-39
2024/04/18 10:59:46;;;;;;;;;;;21.90;55.70;;;;;;5389681;26;19934;-38
2024/04/18 11:02:13;;;;;;;;;;;21.90;55.70;;;;;;5388887;26;19930;-39
2024/04/18 11:04:39;;;;;;;;;;;21.90;55.70;;;;;;5374784;26;19941;-38
2024/04/18 11:07:05;;;;;;;;;;;21.90;55.80;;;;;;5354518;26;19976;-39
2024/04/18 11:09:33;;;;;;;;;;;21.80;55.70;;;;;;5359309;26;19937;-39
2024/04/18 11:12:00;;;;;;;;;;;21.80;55.80;;;;;;5361499;26;19936;-39
2024/04/18 11:14:26;;;;;;;;;;;21.80;55.80;;;;;;5359781;26;19934;-39
2024/04/18 11:16:55;;;;;;;;;;;21.80;55.80;;;;;;5351823;26;19934;-39
2024/04/18 11:19:21;;;;;;;;;;;21.80;55.80;;;;;;5363580;26;19942;-38
2024/04/18 11:21:48;;;;;;;;;;;21.80;55.80;;;;;;5361319;26;19930;-39
2024/04/18 11:24:13;;;;;;;;;;;21.70;55.80;;;;;;5358789;26;20320;-39
2024/04/18 11:26:40;;;;;;;;;;;21.70;55.80;;;;;;5362417;26;19929;-38
2024/04/18 11:29:06;;;;;;;;;;;21.80;55.90;;;;;;5357708;26;19937;-39
2024/04/18 11:31:32;;;;;;;;;;;21.70;55.80;;;;;;5364199;26;19936;-39
2024/04/18 11:33:58;;;;;;;;;;;21.70;55.80;;;;;;5409566;26;19929;-39
2024/04/18 11:36:24;;;;;;;;;;;21.70;55.90;;;;;;5425577;26;20689;-39
2024/04/18 11:38:50;;;;;;;;;;;21.70;55.90;;;;;;5425536;26;19937;-38
2024/04/18 11:41:17;;;;;;;;;;;21.60;55.90;;;;;;5424411;26;19949;-38
2024/04/18 11:43:43;;;;;;;;;;;21.60;55.90;;;;;;5425700;26;19983;-39
2024/04/18 11:46:10;;;;;;;;;;;21.60;55.90;;;;;;5425271;26;19941;-39
2024/04/18 11:48:37;;;;;;;;;;;21.60;55.90;;;;;;5394819;26;20262;-39
2024/04/18 11:51:03;;;;;;;;;;;21.60;55.90;;;;;;5426022;26;19992;-39
2024/04/18 11:53:30;;;;;;;;;;;21.60;55.90;;;;;;5425431;26;19929;-39
2024/04/18 11:55:56;;;;;;;;;;;21.60;55.90;;;;;;5421419;26;19935;-39
2024/04/18 11:58:22;;;;;;;;;;;21.60;56.00;;;;;;5391205;26;19933;-39
2024/04/18 12:00:48;;;;;;;;;;;21.50;55.90;;;;;;5426169;26;20365;-39
2024/04/18 12:03:13;;;;;;;;;;;21.50;56.00;;;;;;5425208;26;19928;-39
2024/04/18 12:05:39;;;;;;;;;;;21.50;56.00;;;;;;5425337;26;19929;-39
2024/04/18 12:08:05;;;;;;;;;;;21.50;56.00;;;;;;5425387;26;19974;-39
2024/04/18 12:10:31;;;;;;;;;;;21.50;56.00;;;;;;5425678;26;19928;-38
2024/04/18 12:12:57;;;;;;;;;;;21.50;56.00;;;;;;5425688;26;20013;-39
2024/04/18 12:15:23;;;;;;;;;;;21.50;56.00;;;;;;5425234;26;19945;-40
2024/04/18 12:17:49;;;;;;;;;;;21.50;56.10;;;;;;5425279;26;19978;-39
2024/04/18 12:20:19;;;;;;;;;;;21.50;56.10;;;;;;5425234;26;19990;-38
2024/04/18 12:22:45;;;;;;;;;;;21.50;56.10;;;;;;5425271;26;19929;-39
2024/04/18 12:25:11;;;;;;;;;;;21.40;56.00;;;;;;5421167;26;20398;-39
2024/04/18 12:27:37;;;;;;;;;;;21.40;56.00;;;;;;5412968;26;19937;-39
2024/04/18 12:30:02;;;;;;;;;;;21.40;56.00;;;;;;5422776;26;19929;-39
2024/04/18 12:32:28;;;;;;;;;;;21.40;56.00;;;;;;5423359;26;19935;-39
2024/04/18 12:34:54;;;;;;;;;;;21.40;56.10;;;;;;5399162;26;20026;-39
2024/04/18 12:37:20;;;;;;;;;;;21.40;56.00;;;;;;5391204;26;19944;-40
2024/04/18 12:39:48;;;;;;;;;;;21.40;56.10;;;;;;5389939;26;19929;-39
2024/04/18 12:42:14;;;;;;;;;;;21.40;56.00;;;;;;5385931;26;19930;-39
2024/04/18 12:44:40;;;;;;;;;;;21.40;56.00;;;;;;5390688;26;19937;-40
2024/04/18 12:47:06;;;;;;;;;;;21.40;56.00;;;;;;5389501;26;19936;-39
2024/04/18 12:49:32;;;;;;;;;;;21.40;56.00;;;;;;5398982;26;19996;-39
2024/04/18 12:51:58;;;;;;;;;;;21.40;56.00;;;;;;5388602;26;19936;-39
2024/04/18 12:54:24;;;;;;;;;;;21.40;56.00;;;;;;5387533;26;19937;-39
2024/04/18 12:56:50;;;;;;;;;;;21.40;56.00;;;;;;5390797;26;19975;-39
2024/04/18 12:59:16;;;;;;;;;;;21.40;56.00;;;;;;5391726;26;19936;-39
2024/04/18 13:01:42;;;;;;;;;;;21.40;56.00;;;;;;5382214;26;19930;-40
2024/04/18 13:04:08;;;;;;;;;;;21.40;56.00;;;;;;5389372;26;19976;-39
2024/04/18 13:06:34;;;;;;;;;;;21.40;56.00;;;;;;5425101;26;20656;-39
2024/04/18 13:09:00;;;;;;;;;;;21.40;56.00;;;;;;5424762;26;19933;-40
2024/04/18 13:11:26;;;;;;;;;;;21.40;56.00;;;;;;5424774;26;20026;-40
2024/04/18 13:13:52;;;;;;;;;;;21.40;56.00;;;;;;5424893;26;19929;-39
2024/04/18 13:16:18;;;;;;;;;;;21.40;56.00;;;;;;5426172;26;19941;-39
2024/04/18 13:18:43;;;;;;;;;;;21.40;56.00;;;;;;5424308;26;20337;-39
2024/04/18 13:21:10;;;;;;;;;;;21.40;56.00;;;;;;5408849;26;19929;-41
2024/04/18 13:23:35;;;;;;;;;;;21.40;56.00;;;;;;5426364;26;19929;-39
2024/04/18 13:26:03;;;;;;;;;;;21.40;56.00;;;;;;5422327;26;19935;-40
2024/04/18 13:28:28;;;;;;;;;;;21.40;56.00;;;;;;5427835;26;19936;-39
2024/04/18 13:30:54;;;;;;;;;;;21.40;55.90;;;;;;5394399;26;19929;-43
2024/04/18 13:33:20;;;;;;;;;;;21.40;55.90;;;;;;5424307;26;19936;-40
2024/04/18 13:35:47;;;;;;;;;;;21.40;55.80;;;;;;5383497;26;19929;-39
2024/04/18 13:38:13;;;;;;;;;;;21.40;55.90;;;;;;5393245;26;20354;-39
2024/04/18 13:40:39;;;;;;;;;;;21.40;55.90;;;;;;5388364;26;19930;-39
2024/04/18 13:43:05;;;;;;;;;;;21.40;55.90;;;;;;5389646;26;20379;-39
2024/04/18 13:45:31;;;;;;;;;;;21.40;55.90;;;;;;5393362;26;19944;-39
2024/04/18 13:48:01;;;;;;;;;;;21.50;55.90;;;;;;5386812;26;19946;-39
2024/04/18 13:50:29;;;;;;;;;;;21.50;56.00;;;;;;5390314;26;19929;-39
2024/04/18 13:52:59;;;;;;;;;;;21.50;55.90;;;;;;5395536;26;19929;-39
2024/04/18 13:55:24;;;;;;;;;;;21.50;56.00;;;;;;5398010;26;19943;-39
2024/04/18 13:57:50;;;;;;;;;;;21.50;55.90;;;;;;5393669;26;19929;-39
2024/04/18 14:00:16;;;;;;;;;;;21.50;56.00;;;;;;5389687;26;20362;-39
2024/04/18 14:02:42;;;;;;;;;;;21.50;55.90;;;;;;5391607;26;20008;-40
2024/04/18 14:05:08;;;;;;;;;;;21.50;55.90;;;;;;5408573;26;19936;-39
2024/04/18 14:07:34;;;;;;;;;;;21.50;55.90;;;;;;5428410;26;19976;-39
2024/04/18 14:10:00;;;;;;;;;;;21.50;55.90;;;;;;5427218;26;19983;-39
2024/04/18 14:12:26;;;;;;;;;;;21.50;56.00;;;;;;5427130;26;19935;-42
2024/04/18 14:14:55;;;;;;;;;;;21.50;55.90;;;;;;5427167;26;19945;-40